Sensation — C6FM8 — position and weather

sailwx.info

Track history (hours):
 
Tides and Currents Weather Stations Pressure Air Temp Water Temp Dewpoint Dewpoint Depression Visibility Wind Speed Wind Dir Waves Ship Positions

Sensation

Last reported at 2017-May-28 07:00 UTC. Time now 2017-May-28 12:23 UTC.
Position N 25°48' W 077°36'.

Type: Passenger vessel. MMSI: 309697000.

Wind from 190 at 24 knots

Barometer 1014.0 mb
Air temperature 26.0 ° C
Dewpoint 24.6 ° C
Water temperature 26.0 ° C

Date/timePositionNaut miles runAvg speedWind from/ knotsBaromVisibWave heightAir tempDewpointWater temp
2017-May-28 07:00N 25°48' W 077°36'2814.1 190 / 241014.0 26.024.626.0
2017-May-28 05:00N 26°06' W 078°00'4414.5 160 / 251014.0 26.024.626.0
2017-May-28 02:00N 26°12' W 078°48'2117.7 150 / 151015.010.8 27.025.627.0
2017-May-28 00:47N 26°16' W 079°12'414.5
2017-May-28 00:30N 26°13' W 079°15'815.2
2017-May-28 00:00N 26°09' W 079°23'816.5
2017-May-27 23:30N 26°05' W 079°30'816.8
2017-May-27 23:00N 26°01' W 079°38'917.2
2017-May-27 22:30N 25°56' W 079°47'917.5
2017-May-27 22:00N 25°52' W 079°55'815.9
2017-May-27 21:30N 25°48' W 080°02'611.4
2017-May-27 21:00N 25°46' W 080°08'2 4.9
2017-May-27 20:30N 25°47' W 080°11'1 1.0
2017-May-27 19:59N 25°47' W 080°10'0 0.0
2017-May-27 19:29N 25°47' W 080°10'0 0.0
2017-May-27 18:59N 25°47' W 080°10'0 0.0
2017-May-27 18:29N 25°47' W 080°10'0 0.0
2017-May-27 17:59N 25°47' W 080°10'0 0.0
2017-May-27 17:26N 25°47' W 080°10'0 0.0
2017-May-27 16:59N 25°47' W 080°10'0 0.0
2017-May-27 16:29N 25°47' W 080°10'0 0.0
2017-May-27 15:59N 25°47' W 080°10'0 0.0
2017-May-27 15:29N 25°47' W 080°10'0 0.0
2017-May-27 14:59N 25°47' W 080°10'0 0.0
2017-May-27 14:26N 25°47' W 080°10'0 0.0
2017-May-27 13:25N 25°47' W 080°10'0 0.0
2017-May-27 12:59N 25°47' W 080°10'0 0.0
2017-May-27 12:29N 25°47' W 080°10'0 0.0
2017-May-27 11:59N 25°47' W 080°10'0 0.0
2017-May-27 11:29N 25°47' W 080°10'0 0.0
2017-May-27 10:59N 25°47' W 080°10'2 3.3
2017-May-27 10:30N 25°46' W 080°09'510.3
2017-May-27 10:00N 25°46' W 080°03'612.9
2017-May-27 09:31N 25°43' W 079°57'815.2
2017-May-27 09:00N 25°35' W 079°56'816.9
2017-May-27 08:31N 25°27' W 079°56'816.4
2017-May-27 08:00N 25°18' W 079°57'6019.8
2017-May-27 05:00N 24°24' W 080°24'4414.8 110 / 151012.0 26.024.625.0
2017-May-27 02:00N 23°54' W 081°00'6817.1 100 / 121016.0 5.4 28.026.627.0
2017-May-26 22:00N 23°36' W 082°12'6220.6 050 / 111014.010.8 28.026.627.0
2017-May-26 19:00N 23°24' W 083°18'11514.4 050 / 161015.010.8 29.027.627.0
2017-May-26 11:00N 22°18' W 085°00'9624.0 150 / 151012.1 5.4 27.025.727.6
2017-May-26 07:00N 21°00' W 084°00'15817.5 130 / 181011.010.8 26.024.626.0
2017-May-25 22:00N 19°30' W 081°42'368 9.2 130 / 151010.0 5.4 30.027.327.0
2017-May-24 06:00N 19°24' W 075°12'14611.2 050 / 181015.0 5.4 26.024.626.0
2017-May-23 17:00N 21°30' W 076°30'4615.3 100 / 201014.0 5.4 27.027.026.0
2017-May-23 14:00N 21°54' W 077°12'11519.2 130 / 201014.010.8 27.027.026.0
2017-May-23 08:00N 23°00' W 078°54'14717.4 130 / 201015.0 26.024.626.0
2017-May-22 23:31N 25°18' W 079°49'315.5
2017-May-22 23:20N 25°21' W 079°50'515.2
2017-May-22 23:00N 25°26' W 079°52'715.0
2017-May-22 22:30N 25°33' W 079°54'714.8
2017-May-22 22:00N 25°40' W 079°57'714.2
2017-May-22 21:30N 25°45' W 080°02'510.6
2017-May-22 21:00N 25°46' W 080°08'2 4.2
2017-May-22 20:27N 25°47' W 080°10'0 0.0
2017-May-22 20:00N 25°47' W 080°10'0 0.0
2017-May-22 19:27N 25°47' W 080°10'0 0.0
2017-May-22 18:57N 25°47' W 080°10'0 0.0
2017-May-22 18:30N 25°47' W 080°10'0 0.0
2017-May-22 17:57N 25°47' W 080°10'0 0.0
2017-May-22 17:30N 25°47' W 080°10'0 0.0
2017-May-22 17:00N 25°47' W 080°10'0 0.0
2017-May-22 16:27N 25°47' W 080°10'0 0.0
2017-May-22 15:12N 25°47' W 080°10'0 0.0
2017-May-22 15:00N 25°47' W 080°10'0 0.0
2017-May-22 14:00N 25°47' W 080°10'0 0.0
2017-May-22 13:30N 25°47' W 080°10'0 0.0
2017-May-22 13:00N 25°47' W 080°10'0 0.0
2017-May-22 12:30N 25°47' W 080°10'0 0.0
2017-May-22 12:00N 25°47' W 080°10'0 0.7
2017-May-22 11:31N 25°47' W 080°11'1 3.0
2017-May-22 11:01N 25°46' W 080°09'611.8
2017-May-22 10:30N 25°46' W 080°03'611.3
2017-May-22 10:00N 25°43' W 079°57'612.7
2017-May-22 09:30N 25°37' W 079°56'612.5
2017-May-22 09:00N 25°30' W 079°56'714.7
2017-May-22 08:30N 25°23' W 079°56'2919.4
2017-May-22 07:00N 24°54' W 080°00'1313.2 130 / 301015.0 26.024.626.0
2017-May-22 06:00N 24°42' W 080°06'6115.2 130 / 131015.0 26.024.626.0
2017-May-22 02:00N 24°00' W 080°54'1225.2 120 / 251015.0 5.4 27.025.627.0
2017-May-22 01:31N 23°57' W 081°07'018.6
2017-May-22 01:30N 23°57' W 081°07'4618.1
2017-May-21 23:00N 23°42' W 081°54'9118.3 090 / 241015.010.8 27.025.627.0
2017-May-21 18:00N 23°18' W 083°30'11514.4 100 / 251016.0 5.4 27.025.626.0
2017-May-21 10:00N 22°12' W 085°12'10617.7 120 / 231011.010.8 28.025.227.0
2017-May-21 04:00N 21°00' W 086°36'2830.7 130 / 381010.0 5.4 27.025.627.0
2017-May-21 03:05N 20°39' W 086°56'119.5
2017-May-21 03:00N 20°38' W 086°57'715.0
2017-May-21 02:30N 20°31' W 086°60'3 4.8
2017-May-21 01:59N 20°29' W 086°59'0 0.0
2017-May-21 01:26N 20°29' W 086°59'0 0.0
2017-May-21 00:59N 20°29' W 086°59'0 0.0
2017-May-21 00:29N 20°29' W 086°59'0 0.0
2017-May-20 23:59N 20°29' W 086°59'0 0.0
2017-May-20 23:29N 20°29' W 086°59'0 0.0
2017-May-20 22:59N 20°29' W 086°59'0 0.0
2017-May-20 22:29N 20°29' W 086°59'0 0.0
2017-May-20 21:59N 20°29' W 086°59'0 0.0
2017-May-20 21:29N 20°29' W 086°59'0 0.0
2017-May-20 20:59N 20°29' W 086°59'0 0.0
2017-May-20 20:29N 20°29' W 086°59'0 0.0
2017-May-20 19:59N 20°29' W 086°59'0 0.0
2017-May-20 19:29N 20°29' W 086°59'0 0.0
2017-May-20 18:59N 20°29' W 086°59'0 0.0
2017-May-20 18:29N 20°29' W 086°59'0 0.0
2017-May-20 17:59N 20°29' W 086°59'0 0.0
2017-May-20 17:29N 20°29' W 086°59'0 0.0
2017-May-20 16:59N 20°29' W 086°59'0 0.0
2017-May-20 16:29N 20°29' W 086°59'1 2.5
2017-May-20 16:01N 20°30' W 086°59'1 1.7
2017-May-20 15:31N 20°29' W 086°59'4 8.6
2017-May-20 15:01N 20°33' W 086°58'18018.0
2017-May-20 05:00N 22°36' W 084°36'2914.3 120 / 251010.0 5.4 28.026.626.0
2017-May-20 03:00N 22°54' W 084°12'9118.2 120 / 201010.0 5.4 27.025.627.0
2017-May-19 22:00N 23°42' W 082°48'133 7.8 090 / 281011.0 5.4 27.024.127.0
2017-May-19 05:00N 24°24' W 080°30'19 9.4 090 / 241015.0 5.4 25.025.026.0
2017-May-19 03:00N 24°42' W 080°36'5519.1 070 / 301014.0 5.4 25.025.025.0
2017-May-19 00:08N 25°16' W 079°49'212.3
2017-May-18 23:56N 25°18' W 079°48'512.3
2017-May-18 23:31N 25°23' W 079°48'612.3
2017-May-18 23:01N 25°30' W 079°48'611.7
2017-May-18 22:31N 25°35' W 079°50'612.3
2017-May-18 22:01N 25°39' W 079°55'612.0
2017-May-18 21:31N 25°43' W 080°00'510.8
2017-May-18 21:01N 25°46' W 080°05'4 8.6
2017-May-18 20:30N 25°47' W 080°10'0 0.0
2017-May-18 19:58N 25°47' W 080°10'0 0.0
2017-May-18 19:28N 25°47' W 080°10'0 0.0
2017-May-18 18:58N 25°47' W 080°10'0 0.0
2017-May-18 18:28N 25°47' W 080°10'0 0.0
2017-May-18 17:55N 25°47' W 080°10'0 0.0
2017-May-18 17:25N 25°47' W 080°10'0 0.0
2017-May-18 16:52N 25°47' W 080°10'0 0.0
2017-May-18 16:25N 25°47' W 080°10'0 0.0
2017-May-18 15:58N 25°47' W 080°10'0 0.0
2017-May-18 15:28N 25°47' W 080°10'0 0.0
2017-May-18 14:55N 25°47' W 080°10'0 0.0
2017-May-18 13:55N 25°47' W 080°10'0 0.0
2017-May-18 13:28N 25°47' W 080°10'0 0.0
2017-May-18 12:58N 25°47' W 080°10'0 0.0
2017-May-18 12:28N 25°47' W 080°10'0 0.0
2017-May-18 11:58N 25°47' W 080°10'0 0.8
2017-May-18 11:31N 25°47' W 080°10'2 3.0
2017-May-18 11:00N 25°46' W 080°09'510.8
2017-May-18 10:30N 25°47' W 080°03'612.1
2017-May-18 10:00N 25°50' W 079°57'510.4
2017-May-18 09:31N 25°53' W 079°53'510.9
2017-May-18 09:00N 25°56' W 079°47'611.5
2017-May-18 08:30N 25°59' W 079°42'1511.4
2017-May-18 07:12N 26°07' W 079°29'312.6
2017-May-18 07:00N 26°08' W 079°26'  
Track history (hours):
 
Tides and Currents Weather Stations Pressure Air Temp Water Temp Dewpoint Dewpoint Depression Visibility Wind Speed Wind Dir Waves Ship Positions

Sensation

Last reported at 2017-May-28 07:00 UTC. Time now 2017-May-28 12:23 UTC.
Position N 25°48' W 077°36'.

Type: Passenger vessel. MMSI: 309697000.

Wind from 190 at 24 knots

Barometer 1014.0 mb
Air temperature 26.0 ° C
Dewpoint 24.6 ° C
Water temperature 26.0 ° C

Date/timePositionNaut miles runAvg speedWind from/ knotsBaromVisibWave heightAir tempDewpointWater temp
2017-May-28 07:00N 25°48' W 077°36'2814.1 190 / 241014.0 26.024.626.0
2017-May-28 05:00N 26°06' W 078°00'4414.5 160 / 251014.0 26.024.626.0
2017-May-28 02:00N 26°12' W 078°48'2117.7 150 / 151015.010.8 27.025.627.0
2017-May-28 00:47N 26°16' W 079°12'414.5
2017-May-28 00:30N 26°13' W 079°15'815.2
2017-May-28 00:00N 26°09' W 079°23'816.5
2017-May-27 23:30N 26°05' W 079°30'816.8
2017-May-27 23:00N 26°01' W 079°38'917.2
2017-May-27 22:30N 25°56' W 079°47'917.5
2017-May-27 22:00N 25°52' W 079°55'815.9
2017-May-27 21:30N 25°48' W 080°02'611.4
2017-May-27 21:00N 25°46' W 080°08'2 4.9
2017-May-27 20:30N 25°47' W 080°11'1 1.0
2017-May-27 19:59N 25°47' W 080°10'0 0.0
2017-May-27 19:29N 25°47' W 080°10'0 0.0
2017-May-27 18:59N 25°47' W 080°10'0 0.0
2017-May-27 18:29N 25°47' W 080°10'0 0.0
2017-May-27 17:59N 25°47' W 080°10'0 0.0
2017-May-27 17:26N 25°47' W 080°10'0 0.0
2017-May-27 16:59N 25°47' W 080°10'0 0.0
2017-May-27 16:29N 25°47' W 080°10'0 0.0
2017-May-27 15:59N 25°47' W 080°10'0 0.0
2017-May-27 15:29N 25°47' W 080°10'0 0.0
2017-May-27 14:59N 25°47' W 080°10'0 0.0
2017-May-27 14:26N 25°47' W 080°10'0 0.0
2017-May-27 13:25N 25°47' W 080°10'0 0.0
2017-May-27 12:59N 25°47' W 080°10'0 0.0
2017-May-27 12:29N 25°47' W 080°10'0 0.0
2017-May-27 11:59N 25°47' W 080°10'0 0.0
2017-May-27 11:29N 25°47' W 080°10'0 0.0
2017-May-27 10:59N 25°47' W 080°10'2 3.3
2017-May-27 10:30N 25°46' W 080°09'510.3
2017-May-27 10:00N 25°46' W 080°03'612.9
2017-May-27 09:31N 25°43' W 079°57'815.2
2017-May-27 09:00N 25°35' W 079°56'816.9
2017-May-27 08:31N 25°27' W 079°56'816.4
2017-May-27 08:00N 25°18' W 079°57'6019.8
2017-May-27 05:00N 24°24' W 080°24'4414.8 110 / 151012.0 26.024.625.0
2017-May-27 02:00N 23°54' W 081°00'6817.1 100 / 121016.0 5.4 28.026.627.0
2017-May-26 22:00N 23°36' W 082°12'6220.6 050 / 111014.010.8 28.026.627.0
2017-May-26 19:00N 23°24' W 083°18'11514.4 050 / 161015.010.8 29.027.627.0
2017-May-26 11:00N 22°18' W 085°00'9624.0 150 / 151012.1 5.4 27.025.727.6
2017-May-26 07:00N 21°00' W 084°00'15817.5 130 / 181011.010.8 26.024.626.0
2017-May-25 22:00N 19°30' W 081°42'368 9.2 130 / 151010.0 5.4 30.027.327.0
2017-May-24 06:00N 19°24' W 075°12'14611.2 050 / 181015.0 5.4 26.024.626.0
2017-May-23 17:00N 21°30' W 076°30'4615.3 100 / 201014.0 5.4 27.027.026.0
2017-May-23 14:00N 21°54' W 077°12'11519.2 130 / 201014.010.8 27.027.026.0
2017-May-23 08:00N 23°00' W 078°54'14717.4 130 / 201015.0 26.024.626.0
2017-May-22 23:31N 25°18' W 079°49'315.5
2017-May-22 23:20N 25°21' W 079°50'515.2
2017-May-22 23:00N 25°26' W 079°52'715.0
2017-May-22 22:30N 25°33' W 079°54'714.8
2017-May-22 22:00N 25°40' W 079°57'714.2
2017-May-22 21:30N 25°45' W 080°02'510.6
2017-May-22 21:00N 25°46' W 080°08'2 4.2
2017-May-22 20:27N 25°47' W 080°10'0 0.0
2017-May-22 20:00N 25°47' W 080°10'0 0.0
2017-May-22 19:27N 25°47' W 080°10'0 0.0
2017-May-22 18:57N 25°47' W 080°10'0 0.0
2017-May-22 18:30N 25°47' W 080°10'0 0.0
2017-May-22 17:57N 25°47' W 080°10'0 0.0
2017-May-22 17:30N 25°47' W 080°10'0 0.0
2017-May-22 17:00N 25°47' W 080°10'0 0.0
2017-May-22 16:27N 25°47' W 080°10'0 0.0
2017-May-22 15:12N 25°47' W 080°10'0 0.0
2017-May-22 15:00N 25°47' W 080°10'0 0.0
2017-May-22 14:00N 25°47' W 080°10'0 0.0
2017-May-22 13:30N 25°47' W 080°10'0 0.0
2017-May-22 13:00N 25°47' W 080°10'0 0.0
2017-May-22 12:30N 25°47' W 080°10'0 0.0
2017-May-22 12:00N 25°47' W 080°10'0 0.7
2017-May-22 11:31N 25°47' W 080°11'1 3.0
2017-May-22 11:01N 25°46' W 080°09'611.8
2017-May-22 10:30N 25°46' W 080°03'611.3
2017-May-22 10:00N 25°43' W 079°57'612.7
2017-May-22 09:30N 25°37' W 079°56'612.5
2017-May-22 09:00N 25°30' W 079°56'714.7
2017-May-22 08:30N 25°23' W 079°56'2919.4
2017-May-22 07:00N 24°54' W 080°00'1313.2 130 / 301015.0 26.024.626.0
2017-May-22 06:00N 24°42' W 080°06'6115.2 130 / 131015.0 26.024.626.0
2017-May-22 02:00N 24°00' W 080°54'1225.2 120 / 251015.0 5.4 27.025.627.0
2017-May-22 01:31N 23°57' W 081°07'018.6
2017-May-22 01:30N 23°57' W 081°07'4618.1
2017-May-21 23:00N 23°42' W 081°54'9118.3 090 / 241015.010.8 27.025.627.0
2017-May-21 18:00N 23°18' W 083°30'11514.4 100 / 251016.0 5.4 27.025.626.0
2017-May-21 10:00N 22°12' W 085°12'10617.7 120 / 231011.010.8 28.025.227.0
2017-May-21 04:00N 21°00' W 086°36'2830.7 130 / 381010.0 5.4 27.025.627.0
2017-May-21 03:05N 20°39' W 086°56'119.5
2017-May-21 03:00N 20°38' W 086°57'715.0
2017-May-21 02:30N 20°31' W 086°60'3 4.8
2017-May-21 01:59N 20°29' W 086°59'0 0.0
2017-May-21 01:26N 20°29' W 086°59'0 0.0
2017-May-21 00:59N 20°29' W 086°59'0 0.0
2017-May-21 00:29N 20°29' W 086°59'0 0.0
2017-May-20 23:59N 20°29' W 086°59'0 0.0
2017-May-20 23:29N 20°29' W 086°59'0 0.0
2017-May-20 22:59N 20°29' W 086°59'0 0.0
2017-May-20 22:29N 20°29' W 086°59'0 0.0
2017-May-20 21:59N 20°29' W 086°59'0 0.0
2017-May-20 21:29N 20°29' W 086°59'0 0.0
2017-May-20 20:59N 20°29' W 086°59'0 0.0
2017-May-20 20:29N 20°29' W 086°59'0 0.0
2017-May-20 19:59N 20°29' W 086°59'0 0.0
2017-May-20 19:29N 20°29' W 086°59'0 0.0
2017-May-20 18:59N 20°29' W 086°59'0 0.0
2017-May-20 18:29N 20°29' W 086°59'0 0.0
2017-May-20 17:59N 20°29' W 086°59'0 0.0
2017-May-20 17:29N 20°29' W 086°59'0 0.0
2017-May-20 16:59N 20°29' W 086°59'0 0.0
2017-May-20 16:29N 20°29' W 086°59'1 2.5
2017-May-20 16:01N 20°30' W 086°59'1 1.7
2017-May-20 15:31N 20°29' W 086°59'4 8.6
2017-May-20 15:01N 20°33' W 086°58'18018.0
2017-May-20 05:00N 22°36' W 084°36'2914.3 120 / 251010.0 5.4 28.026.626.0
2017-May-20 03:00N 22°54' W 084°12'9118.2 120 / 201010.0 5.4 27.025.627.0
2017-May-19 22:00N 23°42' W 082°48'133 7.8 090 / 281011.0 5.4 27.024.127.0
2017-May-19 05:00N 24°24' W 080°30'19 9.4 090 / 241015.0 5.4 25.025.026.0
2017-May-19 03:00N 24°42' W 080°36'5519.1 070 / 301014.0 5.4 25.025.025.0
2017-May-19 00:08N 25°16' W 079°49'212.3
2017-May-18 23:56N 25°18' W 079°48'512.3
2017-May-18 23:31N 25°23' W 079°48'612.3
2017-May-18 23:01N 25°30' W 079°48'611.7
2017-May-18 22:31N 25°35' W 079°50'612.3
2017-May-18 22:01N 25°39' W 079°55'612.0
2017-May-18 21:31N 25°43' W 080°00'510.8
2017-May-18 21:01N 25°46' W 080°05'4 8.6
2017-May-18 20:30N 25°47' W 080°10'0 0.0
2017-May-18 19:58N 25°47' W 080°10'0 0.0
2017-May-18 19:28N 25°47' W 080°10'0 0.0
2017-May-18 18:58N 25°47' W 080°10'0 0.0
2017-May-18 18:28N 25°47' W 080°10'0 0.0
2017-May-18 17:55N 25°47' W 080°10'0 0.0
2017-May-18 17:25N 25°47' W 080°10'0 0.0
2017-May-18 16:52N 25°47' W 080°10'0 0.0
2017-May-18 16:25N 25°47' W 080°10'0 0.0
2017-May-18 15:58N 25°47' W 080°10'0 0.0
2017-May-18 15:28N 25°47' W 080°10'0 0.0
2017-May-18 14:55N 25°47' W 080°10'0 0.0
2017-May-18 13:55N 25°47' W 080°10'0 0.0
2017-May-18 13:28N 25°47' W 080°10'0 0.0
2017-May-18 12:58N 25°47' W 080°10'0 0.0
2017-May-18 12:28N 25°47' W 080°10'0 0.0
2017-May-18 11:58N 25°47' W 080°10'0 0.8
2017-May-18 11:31N 25°47' W 080°10'2 3.0
2017-May-18 11:00N 25°46' W 080°09'510.8
2017-May-18 10:30N 25°47' W 080°03'612.1
2017-May-18 10:00N 25°50' W 079°57'510.4
2017-May-18 09:31N 25°53' W 079°53'510.9
2017-May-18 09:00N 25°56' W 079°47'611.5
2017-May-18 08:30N 25°59' W 079°42'1511.4
2017-May-18 07:12N 26°07' W 079°29'312.6
2017-May-18 07:00N 26°08' W 079°26'  

Dump ship's entire track history